Time;durP1;ratioP1;P1;durP2;ratioP2;P2;SDS_P1;SDS_P2;PMS_P1;PMS_P2;Temp;Humidity;BMP_temperature;BMP_pressure;BME280_temperature;BME280_humidity;BME280_pressure;Samples;Min_cycle;Max_cycle;Signal;HPM_P1;HPM_P2
2024/03/05 00:01:28;;;;;;;26.00;17.70;;;;;;;3.16;100.00;100475.66;87103;273;137419;-76
2024/03/05 00:03:30;;;;;;;25.00;17.30;;;;;;;3.16;100.00;100473.67;87214;269;25117;-75
2024/03/05 00:05:31;;;;;;;24.90;17.50;;;;;;;3.18;100.00;100470.88;87495;269;139015;-74
2024/03/05 00:07:36;;;;;;;24.40;18.60;;;;;;;3.21;100.00;100470.08;87689;277;25755;-78
2024/03/05 00:09:38;;;;;;;26.80;18.20;;;;;;;3.19;100.00;100469.52;87599;270;137550;-76
2024/03/05 00:11:40;;;;;;;27.00;17.40;;;;;;;3.16;100.00;100474.23;87168;270;26238;-75
2024/03/05 00:13:43;;;;;;;25.70;18.10;;;;;;;3.14;100.00;100473.67;87173;265;136368;-73
2024/03/05 00:15:45;;;;;;;22.50;17.60;;;;;;;3.13;100.00;100475.70;87282;269;22559;-75
2024/03/05 00:17:47;;;;;;;24.10;17.70;;;;;;;3.14;100.00;100475.45;87229;279;138290;-72
2024/03/05 00:19:50;;;;;;;21.10;17.20;;;;;;;3.17;100.00;100474.70;87679;274;25218;-73
2024/03/05 00:21:52;;;;;;;19.10;16.80;;;;;;;3.18;100.00;100472.12;87075;273;136860;-74
2024/03/05 00:23:55;;;;;;;23.80;16.60;;;;;;;3.18;100.00;100467.36;87650;270;25252;-74
2024/03/05 00:25:56;;;;;;;20.30;17.20;;;;;;;3.19;100.00;100465.38;87182;269;137023;-75
2024/03/05 00:27:58;;;;;;;19.50;17.20;;;;;;;3.19;100.00;100463.25;87194;277;23997;-74
2024/03/05 00:30:02;;;;;;;24.20;16.50;;;;;;;3.18;100.00;100466.49;87300;268;137074;-76
2024/03/05 00:32:05;;;;;;;29.20;19.10;;;;;;;3.15;100.00;100463.25;87873;268;136567;-74
2024/03/05 00:34:07;;;;;;;22.50;17.60;;;;;;;3.12;100.00;100460.98;88579;269;22615;-81
2024/03/05 00:36:08;;;;;;;25.30;17.70;;;;;;;3.10;100.00;100461.58;89654;266;136330;-78
2024/03/05 00:38:10;;;;;;;21.20;18.10;;;;;;;3.07;100.00;100466.41;89552;275;22522;-77
2024/03/05 00:40:25;;;;;;;26.00;18.60;;;;;;;3.09;100.00;100461.48;89871;266;136905;-79
2024/03/05 00:42:27;;;;;;;22.60;17.60;;;;;;;3.14;100.00;100461.95;89908;273;22517;-79
2024/03/05 00:44:29;;;;;;;25.50;17.90;;;;;;;3.17;100.00;100467.86;89512;266;137327;-79
2024/03/05 00:46:31;;;;;;;30.60;19.40;;;;;;;3.13;100.00;100469.92;89020;270;25079;-76
2024/03/05 00:48:33;;;;;;;32.00;20.00;;;;;;;3.09;100.00;100468.88;87328;270;136914;-76
2024/03/05 00:50:35;;;;;;;25.10;18.40;;;;;;;3.09;100.00;100468.13;87120;268;25280;-76
2024/03/05 00:52:37;;;;;;;24.90;17.90;;;;;;;3.09;100.00;100468.90;87643;275;137526;-81
2024/03/05 00:54:39;;;;;;;26.60;19.80;;;;;;;3.09;100.00;100469.60;87765;274;25079;-81
2024/03/05 00:56:40;;;;;;;24.50;20.20;;;;;;;3.09;100.00;100469.58;87544;267;137848;-79
2024/03/05 00:58:42;;;;;;;25.70;19.00;;;;;;;3.07;100.00;100470.64;87586;269;22585;-79
2024/03/05 01:00:44;;;;;;;27.40;19.70;;;;;;;3.01;100.00;100473.65;87514;271;136286;-79
2024/03/05 01:02:46;;;;;;;30.40;21.10;;;;;;;2.94;100.00;100476.14;87608;266;25130;-81
2024/03/05 01:04:47;;;;;;;25.50;20.40;;;;;;;2.89;100.00;100477.33;87839;278;136925;-80
2024/03/05 01:06:50;;;;;;;29.40;20.70;;;;;;;2.86;100.00;100479.49;87860;273;25544;-83
2024/03/05 01:08:52;;;;;;;27.20;18.80;;;;;;;2.90;100.00;100476.70;87722;273;136999;-84
2024/03/05 01:10:53;;;;;;;28.50;21.60;;;;;;;2.94;100.00;100475.11;87597;269;22579;-74
2024/03/05 01:12:56;;;;;;;25.90;19.10;;;;;;;2.97;100.00;100472.58;87188;273;137053;-73
2024/03/05 01:14:58;;;;;;;30.60;19.50;;;;;;;2.99;100.00;100470.33;87213;269;22802;-74
2024/03/05 01:17:00;;;;;;;24.90;20.00;;;;;;;3.00;100.00;100470.91;87204;273;137374;-73
2024/03/05 01:19:02;;;;;;;28.60;18.50;;;;;;;3.01;100.00;100469.75;87268;268;22807;-74
2024/03/05 01:21:06;;;;;;;24.70;19.60;;;;;;;3.01;100.00;100467.69;87189;269;136196;-74
2024/03/05 01:23:10;;;;;;;26.60;20.40;;;;;;;2.99;100.00;100466.64;87296;274;25080;-75
2024/03/05 01:25:12;;;;;;;31.80;21.60;;;;;;;2.96;100.00;100467.98;87136;278;136151;-74
2024/03/05 01:27:14;;;;;;;24.20;19.80;;;;;;;2.92;100.00;100467.84;87225;270;22568;-74
2024/03/05 01:29:17;;;;;;;28.50;20.70;;;;;;;2.88;100.00;100469.66;87053;269;136358;-77
2024/03/05 01:31:19;;;;;;;28.30;21.40;;;;;;;2.88;100.00;100468.80;87212;264;25391;-75
2024/03/05 01:33:21;;;;;;;27.40;20.40;;;;;;;2.90;100.00;100470.73;86968;270;137227;-75
2024/03/05 01:35:23;;;;;;;31.80;20.80;;;;;;;2.92;100.00;100467.90;87214;269;22568;-74
2024/03/05 01:37:24;;;;;;;24.90;19.70;;;;;;;2.94;100.00;100467.20;87123;276;136747;-74
2024/03/05 01:39:28;;;;;;;32.40;19.80;;;;;;;2.97;100.00;100466.98;87080;273;24890;-75
2024/03/05 01:41:31;;;;;;;26.60;19.50;;;;;;;2.97;100.00;100468.05;87029;274;138906;-73
2024/03/05 01:43:33;;;;;;;32.90;19.00;;;;;;;2.98;100.00;100466.20;87203;278;22748;-73
2024/03/05 01:45:35;;;;;;;28.20;20.90;;;;;;;2.95;100.00;100468.02;87277;269;136280;-72
2024/03/05 01:47:36;;;;;;;28.00;21.30;;;;;;;2.90;100.00;100467.89;87183;273;22984;-73
2024/03/05 01:49:39;;;;;;;26.60;21.00;;;;;;;2.85;100.00;100464.17;87042;270;136463;-72
2024/03/05 01:51:43;;;;;;;24.20;20.70;;;;;;;2.78;100.00;100465.67;87139;275;25134;-72
2024/03/05 01:53:46;;;;;;;30.00;20.40;;;;;;;2.70;100.00;100466.48;87165;269;136568;-72
2024/03/05 01:55:48;;;;;;;32.00;20.30;;;;;;;2.68;100.00;100465.80;87277;273;26733;-72
2024/03/05 01:57:51;;;;;;;29.30;21.10;;;;;;;2.65;100.00;100467.61;87047;269;137083;-73
2024/03/05 01:59:53;;;;;;;33.00;20.70;;;;;;;2.64;100.00;100467.38;87286;266;23768;-72
2024/03/05 02:01:56;;;;;;;29.70;21.60;;;;;;;2.62;100.00;100471.02;87049;277;137143;-71
2024/03/05 02:03:58;;;;;;;32.00;20.60;;;;;;;2.61;100.00;100474.45;87241;273;22832;-72
2024/03/05 02:06:01;;;;;;;26.10;20.60;;;;;;;2.60;100.00;100474.08;87125;273;137068;-72
2024/03/05 02:08:03;;;;;;;29.90;23.00;;;;;;;2.56;100.00;100474.77;87647;265;138153;-71
2024/03/05 02:10:09;;;;;;;27.30;22.00;;;;;;;2.49;100.00;100473.92;87285;269;22549;-73
2024/03/05 02:12:10;;;;;;;26.60;22.30;;;;;;;2.44;100.00;100473.32;87098;269;138117;-72
2024/03/05 02:14:13;;;;;;;30.90;22.50;;;;;;;2.40;100.00;100477.90;87183;274;22562;-72
2024/03/05 02:16:15;;;;;;;27.90;21.70;;;;;;;2.37;100.00;100475.70;87127;270;137154;-72
2024/03/05 02:18:17;;;;;;;28.70;20.10;;;;;;;2.36;100.00;100479.61;87205;269;25134;-72
2024/03/05 02:20:20;;;;;;;30.00;21.90;;;;;;;2.37;100.00;100482.35;87026;266;137305;-71
2024/03/05 02:22:22;;;;;;;34.10;22.00;;;;;;;2.38;100.00;100482.09;87108;266;24175;-73
2024/03/05 02:24:24;;;;;;;28.50;20.40;;;;;;;2.39;100.00;100482.33;87057;277;137090;-72
2024/03/05 02:26:31;;;;;;;25.00;19.40;;;;;;;2.39;100.00;100478.09;87130;270;25195;-73
2024/03/05 02:28:33;;;;;;;30.20;21.10;;;;;;;2.38;100.00;100481.52;87219;271;137873;-73
2024/03/05 02:30:36;;;;;;;25.80;20.40;;;;;;;2.35;100.00;100480.41;87191;267;22655;-74
2024/03/05 02:32:42;;;;;;;26.40;21.30;;;;;;;2.32;100.00;100477.86;86944;277;138291;-74
2024/03/05 02:34:43;;;;;;;25.50;19.70;;;;;;;2.29;100.00;100474.97;87219;261;25252;-75
2024/03/05 02:36:47;;;;;;;28.90;21.80;;;;;;;2.23;100.00;100477.54;87124;270;136337;-74
2024/03/05 02:38:50;;;;;;;26.60;21.80;;;;;;;2.20;100.00;100476.11;87276;266;22927;-75
2024/03/05 02:40:53;;;;;;;25.80;20.00;;;;;;;2.19;100.00;100477.02;87179;273;136236;-72
2024/03/05 02:42:55;;;;;;;29.30;21.70;;;;;;;2.23;100.00;100477.92;87501;266;22589;-73
2024/03/05 02:44:56;;;;;;;27.50;21.50;;;;;;;2.26;100.00;100479.77;87076;266;137305;-73
2024/03/05 02:46:58;;;;;;;29.60;22.40;;;;;;;2.29;100.00;100480.56;87186;270;25133;-74
2024/03/05 02:49:03;;;;;;;29.90;21.50;;;;;;;2.31;100.00;100479.72;87027;268;137234;-73
2024/03/05 02:51:05;;;;;;;30.20;21.40;;;;;;;2.33;100.00;100480.76;87219;273;24058;-72
2024/03/05 02:53:07;;;;;;;24.30;19.90;;;;;;;2.33;100.00;100479.48;87076;268;137057;-72
2024/03/05 02:55:10;;;;;;;26.60;20.10;;;;;;;2.33;100.00;100478.97;87214;270;24142;-73
2024/03/05 02:57:12;;;;;;;26.80;21.30;;;;;;;2.32;100.00;100476.98;87547;269;137283;-73
2024/03/05 02:59:14;;;;;;;30.10;21.90;;;;;;;2.32;100.00;100478.37;87199;270;22956;-73
2024/03/05 03:01:17;;;;;;;28.80;21.90;;;;;;;2.29;100.00;100476.50;87098;270;136485;-74
2024/03/05 03:03:19;;;;;;;27.10;22.00;;;;;;;2.28;100.00;100469.44;87216;270;22544;-75
2024/03/05 03:05:21;;;;;;;35.40;21.70;;;;;;;2.27;100.00;100468.98;87359;269;136168;-81
2024/03/05 03:07:23;;;;;;;26.20;21.50;;;;;;;2.25;100.00;100469.28;87535;265;25190;-74
2024/03/05 03:09:25;;;;;;;25.70;20.00;;;;;;;2.23;100.00;100468.79;87280;269;136868;-72
2024/03/05 03:11:27;;;;;;;33.10;21.20;;;;;;;2.20;100.00;100470.66;87282;269;22561;-71
2024/03/05 03:13:31;;;;;;;29.20;21.20;;;;;;;2.16;100.00;100465.19;87048;273;136762;-76
2024/03/05 03:15:33;;;;;;;27.90;21.40;;;;;;;2.13;100.00;100467.11;87357;274;25098;-75
2024/03/05 03:17:38;;;;;;;30.40;23.30;;;;;;;2.13;100.00;100465.81;87078;269;138883;-73
2024/03/05 03:19:40;;;;;;;28.90;21.50;;;;;;;2.13;100.00;100467.50;87474;267;24007;-76
2024/03/05 03:21:44;;;;;;;30.60;21.60;;;;;;;2.14;100.00;100462.02;87110;277;137816;-75
2024/03/05 03:23:46;;;;;;;26.00;19.80;;;;;;;2.14;100.00;100463.58;87252;274;25114;-79
2024/03/05 03:25:47;;;;;;;26.40;20.20;;;;;;;2.15;100.00;100468.25;87176;268;137243;-72
2024/03/05 03:27:49;;;;;;;30.40;21.30;;;;;;;2.14;100.00;100467.27;87085;269;22677;-71
2024/03/05 03:29:52;;;;;;;27.30;21.10;;;;;;;2.12;100.00;100470.91;87272;269;138186;-76
2024/03/05 03:31:56;;;;;;;40.90;22.60;;;;;;;2.08;100.00;100477.64;87486;273;22568;-77
2024/03/05 03:33:58;;;;;;;27.50;21.20;;;;;;;2.04;100.00;100484.08;87229;273;136613;-77
2024/03/05 03:36:00;;;;;;;29.00;22.60;;;;;;;2.02;100.00;100484.23;87183;270;22572;-77
2024/03/05 03:38:03;;;;;;;30.70;23.50;;;;;;;2.01;100.00;100488.22;87159;266;24282;-75
2024/03/05 03:40:09;;;;;;;29.70;23.40;;;;;;;2.02;100.00;100488.95;87066;276;137157;-74
2024/03/05 03:42:10;;;;;;;32.10;21.90;;;;;;;2.06;100.00;100486.40;87233;274;24010;-73
2024/03/05 03:44:12;;;;;;;30.40;21.30;;;;;;;2.07;100.00;100484.49;87084;273;137418;-76
2024/03/05 03:46:14;;;;;;;29.70;21.80;;;;;;;2.09;100.00;100487.86;87223;269;24612;-80
2024/03/05 03:48:16;;;;;;;32.30;21.80;;;;;;;2.09;100.00;100489.08;87228;270;136922;-79
2024/03/05 03:50:18;;;;;;;26.80;21.00;;;;;;;2.09;100.00;100489.60;87223;273;22906;-79
2024/03/05 03:52:20;;;;;;;26.70;21.50;;;;;;;2.10;100.00;100490.76;87190;270;137232;-80
2024/03/05 03:54:22;;;;;;;34.10;24.30;;;;;;;2.09;100.00;100490.64;87158;262;22625;-85
2024/03/05 03:56:26;;;;;;;30.80;22.20;;;;;;;2.04;100.00;100491.11;87164;266;136949;-82
2024/03/05 03:58:28;;;;;;;31.20;23.60;;;;;;;1.99;100.00;100488.75;87339;269;25219;-79
2024/03/05 04:00:32;;;;;;;27.10;22.50;;;;;;;1.95;100.00;100490.62;87203;270;137082;-75
2024/03/05 04:02:36;;;;;;;28.50;21.50;;;;;;;1.93;100.00;100492.67;87972;270;22548;-75
2024/03/05 04:04:38;;;;;;;30.40;22.90;;;;;;;1.95;100.00;100493.27;87170;273;137070;-74
2024/03/05 04:06:40;;;;;;;28.70;21.80;;;;;;;1.97;100.00;100490.85;87184;276;23513;-75
2024/03/05 04:08:41;;;;;;;36.00;22.40;;;;;;;1.97;100.00;100488.70;87061;268;138196;-75
2024/03/05 04:10:43;;;;;;;30.20;21.50;;;;;;;1.96;100.00;100490.05;87124;273;23808;-74
2024/03/05 04:12:45;;;;;;;29.90;23.00;;;;;;;1.96;100.00;100490.52;87013;271;137083;-76
2024/03/05 04:14:47;;;;;;;26.70;21.30;;;;;;;1.98;100.00;100488.30;87176;270;23774;-77
2024/03/05 04:16:48;;;;;;;35.20;20.90;;;;;;;2.00;100.00;100489.32;87067;270;138359;-76
2024/03/05 04:18:50;;;;;;;31.70;23.30;;;;;;;2.02;100.00;100492.64;87281;264;22568;-78
2024/03/05 04:20:53;;;;;;;28.50;23.00;;;;;;;2.05;100.00;100492.06;87149;269;136899;-76
2024/03/05 04:22:55;;;;;;;28.30;22.30;;;;;;;2.05;100.00;100490.45;87107;272;22584;-79
2024/03/05 04:24:57;;;;;;;34.20;24.00;;;;;;;2.03;100.00;100488.84;87247;269;136435;-80
2024/03/05 04:27:03;;;;;;;27.20;20.90;;;;;;;2.02;100.00;100486.67;87990;273;22523;-77
2024/03/05 04:29:07;;;;;;;28.50;21.20;;;;;;;2.00;100.00;100490.37;88467;273;136186;-76
2024/03/05 04:31:10;;;;;;;34.70;23.60;;;;;;;2.02;100.00;100494.81;89225;266;22689;-78
2024/03/05 04:33:15;;;;;;;30.80;23.30;;;;;;;2.04;100.00;100492.48;89120;265;136724;-77
2024/03/05 04:35:17;;;;;;;27.90;21.80;;;;;;;2.09;100.00;100490.29;88352;270;23150;-77
2024/03/05 04:37:20;;;;;;;33.60;21.50;;;;;;;2.12;100.00;100491.08;87211;269;136553;-79
2024/03/05 04:39:22;;;;;;;27.80;20.70;;;;;;;2.15;100.00;100488.43;87106;271;627831;-79
2024/03/05 04:41:23;;;;;;;28.10;20.80;;;;;;;2.17;100.00;100489.45;87203;273;137335;-78
2024/03/05 04:43:25;;;;;;;28.60;22.00;;;;;;;2.20;100.00;100490.10;87336;274;22641;-75
2024/03/05 04:45:27;;;;;;;31.20;22.10;;;;;;;2.22;100.00;100485.02;87908;273;138104;-82
2024/03/05 04:47:30;;;;;;;32.20;22.20;;;;;;;2.26;100.00;100485.20;88060;269;22578;-84
2024/03/05 04:49:31;;;;;;;32.50;22.90;;;;;;;2.27;100.00;100485.50;87807;277;136451;-79
2024/03/05 04:51:33;;;;;;;29.60;21.10;;;;;;;2.27;100.00;100487.06;87426;270;27081;-80
2024/03/05 04:53:36;;;;;;;28.70;22.40;;;;;;;2.29;100.00;100487.77;87485;273;136592;-83
2024/03/05 04:55:38;;;;;;;32.20;22.60;;;;;;;2.31;100.00;100486.37;87601;273;22559;-83
2024/03/05 04:57:41;;;;;;;37.40;22.90;;;;;;;2.36;100.00;100485.96;87372;266;137976;-77
2024/03/05 04:59:42;;;;;;;27.30;22.00;;;;;;;2.40;100.00;100487.85;87429;269;22581;-74
2024/03/05 05:01:44;;;;;;;25.40;20.00;;;;;;;2.46;100.00;100486.84;87488;269;137059;-74
2024/03/05 05:03:46;;;;;;;31.20;22.70;;;;;;;2.55;100.00;100485.88;87333;270;22815;-77
2024/03/05 05:05:48;;;;;;;27.60;20.30;;;;;;;2.68;100.00;100484.95;87188;270;136705;-80
2024/03/05 05:07:51;;;;;;;27.50;23.30;;;;;;;2.79;100.00;100486.73;87474;277;25117;-85
2024/03/05 05:09:53;;;;;;;28.60;20.50;;;;;;;2.90;100.00;100492.65;87303;269;137194;-78
2024/03/05 05:11:54;;;;;;;25.30;20.40;;;;;;;3.04;100.00;100495.65;87732;266;25926;-85
2024/03/05 05:13:57;;;;;;;27.90;22.50;;;;;;;3.20;100.00;100491.20;87660;266;136093;-75
2024/03/05 05:15:59;;;;;;;30.60;21.30;;;;;;;3.34;100.00;100492.66;87360;266;25281;-76
2024/03/05 05:18:00;;;;;;;28.00;21.90;;;;;;;3.40;100.00;100498.44;87147;272;136300;-76
2024/03/05 05:20:07;;;;;;;32.10;22.20;;;;;;;3.35;100.00;100495.88;87436;276;136924;-71
2024/03/05 05:22:09;;;;;;;31.00;22.00;;;;;;;3.24;100.00;100497.39;87327;268;22544;-81
2024/03/05 05:24:11;;;;;;;25.00;20.20;;;;;;;3.09;100.00;100505.74;87074;268;137047;-76
2024/03/05 05:26:13;;;;;;;29.70;21.50;;;;;;;2.98;100.00;100507.46;87303;278;29162;-74
2024/03/05 05:28:15;;;;;;;27.80;20.90;;;;;;;2.93;100.00;100503.14;87124;270;137407;-75
2024/03/05 05:30:19;;;;;;;26.80;20.60;;;;;;;2.90;100.00;100503.67;87181;274;25105;-74
2024/03/05 05:32:21;;;;;;;29.60;22.20;;;;;;;2.89;100.00;100499.58;87747;274;137634;-77
2024/03/05 05:34:22;;;;;;;31.70;22.50;;;;;;;2.91;100.00;100497.33;87028;269;22568;-77
2024/03/05 05:36:25;;;;;;;28.20;21.00;;;;;;;2.93;100.00;100499.57;86941;268;135826;-77
2024/03/05 05:38:26;;;;;;;30.30;23.10;;;;;;;3.04;100.00;100499.84;87844;273;22599;-81
2024/03/05 05:40:28;;;;;;;29.80;23.30;;;;;;;3.25;100.00;100496.25;87115;267;135795;-79
2024/03/05 05:42:30;;;;;;;28.80;22.40;;;;;;;3.55;100.00;100495.83;87304;269;22565;-69
2024/03/05 05:44:32;;;;;;;28.20;22.00;;;;;;;3.89;100.00;100497.83;87187;266;136778;-66
2024/03/05 05:46:35;;;;;;;30.40;22.60;;;;;;;4.24;100.00;100504.17;87200;273;25102;-68
2024/03/05 05:48:37;;;;;;;28.50;21.80;;;;;;;4.50;100.00;100507.18;87248;273;137052;-74
2024/03/05 05:50:38;;;;;;;29.70;21.90;;;;;;;4.62;100.00;100507.77;87870;269;22581;-68
2024/03/05 05:52:41;;;;;;;28.10;20.40;;;;;;;4.62;100.00;100506.36;87115;270;136677;-70
2024/03/05 05:54:43;;;;;;;27.70;21.70;;;;;;;4.62;99.94;100510.61;87564;265;25143;-70
2024/03/05 05:56:45;;;;;;;26.60;21.80;;;;;;;4.65;99.72;100514.17;87050;273;137689;-71
2024/03/05 05:58:47;;;;;;;26.90;22.20;;;;;;;4.73;99.26;100512.56;87016;272;24789;-69
2024/03/05 06:00:50;;;;;;;25.90;21.60;;;;;;;4.91;98.55;100509.60;88386;265;136192;-70
2024/03/05 06:02:53;;;;;;;26.70;20.60;;;;;;;5.21;97.74;100514.66;88956;272;24473;-70
2024/03/05 06:04:55;;;;;;;25.00;21.30;;;;;;;5.59;95.98;100513.23;86963;269;136078;-68
2024/03/05 06:06:57;;;;;;;27.70;23.00;;;;;;;5.97;93.57;100514.21;87648;265;22574;-70
2024/03/05 06:09:08;;;;;;;28.90;23.00;;;;;;;6.30;90.66;100515.30;87774;265;136353;-69
2024/03/05 06:11:11;;;;;;;26.20;21.10;;;;;;;6.61;88.01;100515.34;87339;272;22552;-71
2024/03/05 06:13:13;;;;;;;28.90;22.10;;;;;;;6.82;85.77;100513.50;88811;274;136191;-69
2024/03/05 06:15:18;;;;;;;25.70;21.90;;;;;;;6.98;83.72;100508.68;87235;270;24090;-67
2024/03/05 06:17:20;;;;;;;29.70;21.00;;;;;;;7.17;82.40;100506.68;87053;270;136074;-69
2024/03/05 06:19:22;;;;;;;25.90;21.50;;;;;;;7.46;80.80;100499.77;87799;268;22811;-71
2024/03/05 06:21:24;;;;;;;23.10;20.60;;;;;;;7.78;77.79;100497.77;87526;269;138676;-72
2024/03/05 06:23:26;;;;;;;24.70;20.60;;;;;;;8.04;76.92;100495.05;87072;270;22568;-73
2024/03/05 06:25:28;;;;;;;26.00;21.50;;;;;;;8.37;75.29;100496.77;86936;269;137539;-72
2024/03/05 06:27:31;;;;;;;29.60;23.50;;;;;;;8.67;73.03;100496.10;87223;268;23961;-80
2024/03/05 06:29:34;;;;;;;25.70;22.40;;;;;;;8.84;69.66;100494.46;88428;269;136062;-84
2024/03/05 06:31:36;;;;;;;25.60;20.70;;;;;;;8.88;69.31;100494.64;88891;265;22769;-86
2024/03/05 06:33:38;;;;;;;26.10;20.30;;;;;;;8.92;69.57;100497.30;88804;265;137203;-83
2024/03/05 06:35:40;;;;;;;23.90;20.30;;;;;;;8.86;68.70;100495.69;88353;267;22572;-83
2024/03/05 06:37:53;;;;;;;24.20;20.20;;;;;;;8.71;68.99;100499.11;87997;271;137327;-81
2024/03/05 06:39:55;;;;;;;23.80;20.80;;;;;;;8.46;68.66;100496.36;87722;269;22558;-80
2024/03/05 06:41:58;;;;;;;32.80;21.80;;;;;;;8.14;68.99;100497.70;87559;270;137589;-81
2024/03/05 06:44:10;;;;;;;23.90;20.70;;;;;;;7.78;69.99;100493.29;87739;269;22600;-79
2024/03/05 06:46:13;;;;;;;25.40;21.30;;;;;;;7.47;71.53;100498.21;90038;269;23159;-77
2024/03/05 06:48:22;;;;;;;25.60;21.30;;;;;;;7.20;72.60;100498.96;87915;277;137614;-79
2024/03/05 06:50:37;;;;;;;26.60;20.90;;;;;;;6.96;73.51;100502.90;87884;273;22534;-76
2024/03/05 06:57:20;;;;;;;28.50;22.50;;;;;;;6.58;76.05;100504.30;87715;270;135899;-76
2024/03/05 06:59:22;;;;;;;28.40;21.50;;;;;;;6.48;76.47;100505.27;87727;269;22568;-76
2024/03/05 07:01:28;;;;;;;26.90;23.60;;;;;;;6.35;77.45;100505.14;87534;270;136136;-78
2024/03/05 07:03:30;;;;;;;28.30;23.10;;;;;;;6.19;78.06;100503.55;87649;270;25249;-79
2024/03/05 07:05:32;;;;;;;25.60;21.60;;;;;;;6.07;79.06;100500.07;87697;273;136159;-77
2024/03/05 07:07:34;;;;;;;32.00;22.00;;;;;;;5.93;79.88;100503.16;87604;273;22552;-78
2024/03/05 07:09:37;;;;;;;29.50;22.90;;;;;;;5.85;81.20;100504.34;87604;269;135924;-78
2024/03/05 07:11:39;;;;;;;26.80;21.80;;;;;;;5.80;81.68;100499.88;87846;272;22568;-80
2024/03/05 07:13:47;;;;;;;30.90;22.90;;;;;;;5.77;81.88;100499.95;87532;266;136985;-78
2024/03/05 07:15:51;;;;;;;27.10;23.10;;;;;;;5.70;81.84;100496.42;87524;264;25111;-79
2024/03/05 07:17:53;;;;;;;27.60;21.80;;;;;;;5.60;82.55;100496.30;87742;270;135914;-77
2024/03/05 07:19:55;;;;;;;28.20;23.30;;;;;;;5.59;83.25;100496.45;87988;277;22871;-77
2024/03/05 07:21:57;;;;;;;27.10;23.20;;;;;;;5.60;83.32;100498.15;87760;277;135855;-77
2024/03/05 07:23:58;;;;;;;30.20;24.00;;;;;;;5.64;83.55;100497.77;87959;269;22647;-77
2024/03/05 07:26:01;;;;;;;30.40;22.80;;;;;;;5.74;83.62;100500.61;89981;265;137019;-80
2024/03/05 07:28:10;;;;;;;28.90;22.90;;;;;;;5.86;83.15;100500.70;89833;275;137808;-78
2024/03/05 07:30:15;;;;;;;27.50;22.80;;;;;;;5.94;82.73;100503.06;90304;261;22386;-75
2024/03/05 07:32:17;;;;;;;28.00;21.90;;;;;;;5.98;82.18;100500.86;88474;269;136171;-76
2024/03/05 07:34:20;;;;;;;26.60;23.40;;;;;;;6.00;81.89;100502.84;87690;266;23187;-76
2024/03/05 07:36:22;;;;;;;30.90;23.40;;;;;;;6.03;82.11;100501.79;87524;278;136190;-77
2024/03/05 07:38:25;;;;;;;29.40;23.60;;;;;;;6.09;81.62;100503.39;87677;274;25263;-76
2024/03/05 07:40:27;;;;;;;28.20;22.50;;;;;;;6.13;81.34;100500.34;87504;269;135863;-80
2024/03/05 07:42:29;;;;;;;30.60;23.50;;;;;;;6.19;81.36;100499.55;87929;269;22544;-68
2024/03/05 07:44:33;;;;;;;31.70;23.40;;;;;;;6.29;81.01;100498.33;87145;269;137204;-69
2024/03/05 07:46:35;;;;;;;36.70;24.90;;;;;;;6.37;80.37;100498.20;87341;269;22483;-72
2024/03/05 07:48:37;;;;;;;31.20;24.10;;;;;;;6.40;79.95;100497.73;87159;270;135980;-70
2024/03/05 07:50:41;;;;;;;36.70;24.20;;;;;;;6.44;80.06;100496.82;87214;273;25139;-69
2024/03/05 07:52:45;;;;;;;;;;;;;;;6.53;80.12;100497.70;87354;269;137295;-69
2024/03/05 07:54:47;;;;;;;34.10;22.80;;;;;;;6.62;79.83;100496.02;87553;277;22654;-70
2024/03/05 07:56:48;;;;;;;28.20;22.10;;;;;;;6.74;78.66;100489.27;87401;265;136915;-76
2024/03/05 07:58:50;;;;;;;26.90;21.90;;;;;;;6.79;78.50;100489.97;87805;269;22947;-77
2024/03/05 08:00:52;;;;;;;27.20;22.40;;;;;;;6.84;78.07;100487.16;87582;271;136643;-78
2024/03/05 08:02:54;;;;;;;28.20;21.20;;;;;;;6.87;77.74;100482.30;87892;273;22896;-83
2024/03/05 08:04:56;;;;;;;31.50;22.20;;;;;;;6.92;77.48;100487.12;87434;270;136180;-65
2024/03/05 08:06:58;;;;;;;24.80;20.90;;;;;;;7.00;77.39;100485.40;87217;274;22589;-61
2024/03/05 08:09:00;;;;;;;23.50;19.90;;;;;;;7.08;77.08;100485.40;87103;273;136699;-62
2024/03/05 08:11:02;;;;;;;28.40;22.10;;;;;;;7.13;76.25;100486.44;87170;269;23938;-63
2024/03/05 08:13:04;;;;;;;22.60;20.20;;;;;;;7.12;75.86;100483.20;87065;269;136207;-63
2024/03/05 08:15:07;;;;;;;29.20;21.00;;;;;;;7.13;75.94;100484.50;87084;274;23766;-61
2024/03/05 08:17:08;;;;;;;27.20;21.30;;;;;;;7.18;75.88;100483.58;87003;269;136654;-65
2024/03/05 08:19:10;;;;;;;27.90;21.10;;;;;;;7.24;75.72;100479.48;87052;269;25083;-66
2024/03/05 08:21:15;;;;;;;30.50;22.10;;;;;;;7.30;75.63;100475.84;87237;273;136596;-67
2024/03/05 08:23:17;;;;;;;24.70;19.70;;;;;;;7.39;75.33;100477.15;87348;265;22911;-63
2024/03/05 08:25:21;;;;;;;24.50;20.10;;;;;;;7.47;74.89;100478.80;87163;270;136214;-65
2024/03/05 08:27:23;;;;;;;24.90;19.30;;;;;;;7.55;74.02;100479.91;87322;276;22573;-70
2024/03/05 08:29:27;;;;;;;23.40;18.30;;;;;;;7.58;73.57;100479.55;87066;265;137618;-69
2024/03/05 08:31:29;;;;;;;25.40;20.90;;;;;;;7.63;73.00;100479.95;87199;273;22529;-68
2024/03/05 08:33:32;;;;;;;28.10;19.90;;;;;;;7.65;72.79;100478.15;87079;266;136849;-72
2024/03/05 08:35:34;;;;;;;25.50;20.40;;;;;;;7.65;72.59;100479.02;87337;266;24999;-71
2024/03/05 08:37:36;;;;;;;30.80;21.20;;;;;;;7.66;72.05;100481.89;87052;269;136365;-74
2024/03/05 08:40:51;;;;;;;27.30;21.40;;;;;;;7.51;72.74;100480.68;85493;305;617573;-81
2024/03/05 08:42:56;;;;;;;24.80;21.20;;;;;;;7.51;72.44;100482.08;87386;277;25161;-83
2024/03/05 08:44:58;;;;;;;30.20;20.50;;;;;;;7.54;72.01;100483.36;87452;281;135246;-79
2024/03/05 08:47:00;;;;;;;26.40;21.30;;;;;;;7.56;72.19;100474.15;87129;277;24019;-85
2024/03/05 08:49:02;;;;;;;29.70;22.40;;;;;;;7.59;71.42;100485.83;87090;285;135070;-80
2024/03/05 08:51:04;;;;;;;24.80;19.70;;;;;;;7.57;70.46;100479.29;87303;280;23979;-81
2024/03/05 08:53:06;;;;;;;23.70;20.20;;;;;;;7.51;70.05;100480.81;87071;282;136732;-72
2024/03/05 08:55:08;;;;;;;25.60;21.00;;;;;;;7.44;70.51;100475.21;86691;283;688830;-73
2024/03/05 08:57:10;;;;;;;27.10;21.80;;;;;;;7.43;70.94;100480.66;87221;276;135547;-80
2024/03/05 08:59:12;;;;;;;25.20;19.50;;;;;;;7.46;71.24;100481.23;87540;274;25198;-74
2024/03/05 09:01:13;;;;;;;28.70;21.20;;;;;;;7.50;70.88;100478.70;87106;283;135882;-74
2024/03/05 09:03:15;;;;;;;24.20;20.40;;;;;;;7.54;71.34;100469.73;87241;272;25319;-70
2024/03/05 09:05:17;;;;;;;30.80;20.90;;;;;;;7.63;71.09;100468.27;87271;274;137052;-78
2024/03/05 09:07:20;;;;;;;25.70;20.50;;;;;;;7.70;70.74;100468.39;87528;274;25287;-75
2024/03/05 09:09:22;;;;;;;29.70;21.60;;;;;;;7.78;70.62;100469.27;87071;271;137560;-80
2024/03/05 09:11:24;;;;;;;26.50;21.10;;;;;;;7.87;69.58;100467.02;87468;271;23323;-70
2024/03/05 09:13:26;;;;;;;25.00;20.90;;;;;;;7.92;69.13;100464.79;87171;283;136097;-76
2024/03/05 09:15:29;;;;;;;24.70;21.10;;;;;;;7.94;68.76;100468.23;87585;274;25240;-78
2024/03/05 09:17:33;;;;;;;29.70;22.30;;;;;;;7.96;68.48;100465.70;87149;271;135423;-78
2024/03/05 09:19:36;;;;;;;24.80;20.10;;;;;;;7.95;68.39;100465.50;87446;273;23572;-74
2024/03/05 09:21:38;;;;;;;26.90;19.90;;;;;;;7.91;68.52;100455.98;87357;273;135918;-70
2024/03/05 09:23:40;;;;;;;31.00;21.60;;;;;;;7.88;68.87;100455.06;87538;273;22980;-73
2024/03/05 09:25:41;;;;;;;21.70;19.40;;;;;;;7.87;69.12;100453.04;87331;281;136815;-72
2024/03/05 09:27:44;;;;;;;28.50;20.60;;;;;;;7.89;69.31;100451.55;87332;271;23998;-72
2024/03/05 09:29:47;;;;;;;23.80;20.10;;;;;;;7.93;69.59;100450.11;87421;281;136628;-71